sensor_id;sensor_type;location;lat;lon;timestamp;pressure;altitude;pressure_sealevel;temperature;humidity
71956;BME280;59829;50.562;6.258;2023-08-08T00:01:25;95823.44;;;12.45;95.07
71956;BME280;59829;50.562;6.258;2023-08-08T00:11:26;95823.06;;;12.50;95.62
71956;BME280;59829;50.562;6.258;2023-08-08T00:21:26;95810.75;;;12.63;96.15
71956;BME280;59829;50.562;6.258;2023-08-08T00:31:26;95803.47;;;12.78;96.88
71956;BME280;59829;50.562;6.258;2023-08-08T00:41:27;95790.47;;;12.89;97.32
71956;BME280;59829;50.562;6.258;2023-08-08T00:51:27;95787.75;;;12.90;97.67
71956;BME280;59829;50.562;6.258;2023-08-08T01:01:28;95776.16;;;12.86;97.84
71956;BME280;59829;50.562;6.258;2023-08-08T01:11:29;95784.38;;;12.80;98.14
71956;BME280;59829;50.562;6.258;2023-08-08T01:21:33;95783.19;;;12.75;98.51
71956;BME280;59829;50.562;6.258;2023-08-08T01:31:35;95767.50;;;12.68;98.79
71956;BME280;59829;50.562;6.258;2023-08-08T01:41:38;95774.63;;;12.64;99.29
71956;BME280;59829;50.562;6.258;2023-08-08T01:51:38;95781.94;;;12.59;99.71
71956;BME280;59829;50.562;6.258;2023-08-08T02:01:38;95781.00;;;12.60;100.00
71956;BME280;59829;50.562;6.258;2023-08-08T02:11:39;95761.78;;;12.64;100.00
71956;BME280;59829;50.562;6.258;2023-08-08T02:21:39;95765.31;;;12.54;100.00
71956;BME280;59829;50.562;6.258;2023-08-08T02:31:39;95746.13;;;12.38;100.00
71956;BME280;59829;50.562;6.258;2023-08-08T02:41:40;95757.47;;;12.26;100.00
71956;BME280;59829;50.562;6.258;2023-08-08T02:51:40;95749.91;;;12.15;100.00
71956;BME280;59829;50.562;6.258;2023-08-08T03:01:40;95730.13;;;12.06;100.00
71956;BME280;59829;50.562;6.258;2023-08-08T03:11:40;95728.09;;;12.00;100.00
71956;BME280;59829;50.562;6.258;2023-08-08T03:21:44;95725.78;;;11.97;100.00
71956;BME280;59829;50.562;6.258;2023-08-08T03:31:44;95724.16;;;11.96;100.00
71956;BME280;59829;50.562;6.258;2023-08-08T03:41:44;95721.59;;;11.96;100.00
71956;BME280;59829;50.562;6.258;2023-08-08T03:51:45;95712.44;;;12.03;100.00
71956;BME280;59829;50.562;6.258;2023-08-08T04:01:45;95709.84;;;12.13;100.00
71956;BME280;59829;50.562;6.258;2023-08-08T04:11:45;95700.81;;;12.37;100.00
71956;BME280;59829;50.562;6.258;2023-08-08T04:21:45;95692.44;;;12.55;100.00
71956;BME280;59829;50.562;6.258;2023-08-08T04:31:46;95699.06;;;12.67;100.00
71956;BME280;59829;50.562;6.258;2023-08-08T04:41:46;95680.09;;;12.78;100.00
71956;BME280;59829;50.562;6.258;2023-08-08T04:51:46;95686.16;;;12.86;100.00
71956;BME280;59829;50.562;6.258;2023-08-08T05:01:49;95684.38;;;12.96;100.00
71956;BME280;59829;50.562;6.258;2023-08-08T05:11:50;95681.25;;;13.03;100.00
71956;BME280;59829;50.562;6.258;2023-08-08T05:21:50;95681.06;;;13.14;100.00
71956;BME280;59829;50.562;6.258;2023-08-08T05:31:50;95675.41;;;13.20;100.00
71956;BME280;59829;50.562;6.258;2023-08-08T05:41:51;95677.69;;;13.23;100.00
71956;BME280;59829;50.562;6.258;2023-08-08T05:51:51;95679.69;;;13.29;100.00
71956;BME280;59829;50.562;6.258;2023-08-08T06:01:52;95694.69;;;13.34;100.00
71956;BME280;59829;50.562;6.258;2023-08-08T06:11:52;95683.69;;;13.41;100.00
71956;BME280;59829;50.562;6.258;2023-08-08T06:21:52;95688.25;;;13.47;100.00
71956;BME280;59829;50.562;6.258;2023-08-08T06:31:53;95691.22;;;13.52;100.00
71956;BME280;59829;50.562;6.258;2023-08-08T06:41:53;95685.50;;;13.58;100.00
71956;BME280;59829;50.562;6.258;2023-08-08T06:51:53;95695.50;;;13.62;100.00
71956;BME280;59829;50.562;6.258;2023-08-08T07:01:53;95694.72;;;13.61;100.00
71956;BME280;59829;50.562;6.258;2023-08-08T07:11:54;95687.13;;;13.60;100.00
71956;BME280;59829;50.562;6.258;2023-08-08T07:21:54;95683.69;;;13.69;100.00
71956;BME280;59829;50.562;6.258;2023-08-08T07:31:55;95676.44;;;13.82;100.00
71956;BME280;59829;50.562;6.258;2023-08-08T07:41:55;95680.78;;;13.99;100.00
71956;BME280;59829;50.562;6.258;2023-08-08T07:51:55;95681.97;;;14.05;100.00
71956;BME280;59829;50.562;6.258;2023-08-08T08:01:56;95681.53;;;14.09;100.00
71956;BME280;59829;50.562;6.258;2023-08-08T08:11:56;95677.78;;;14.22;100.00
71956;BME280;59829;50.562;6.258;2023-08-08T08:21:56;95671.44;;;14.34;100.00
71956;BME280;59829;50.562;6.258;2023-08-08T08:32:00;95686.03;;;14.43;100.00
71956;BME280;59829;50.562;6.258;2023-08-08T08:42:00;95699.59;;;14.45;100.00
71956;BME280;59829;50.562;6.258;2023-08-08T08:52:05;95700.75;;;14.51;100.00
71956;BME280;59829;50.562;6.258;2023-08-08T09:02:07;95701.66;;;14.59;100.00
71956;BME280;59829;50.562;6.258;2023-08-08T09:12:08;95704.59;;;14.64;100.00
71956;BME280;59829;50.562;6.258;2023-08-08T09:22:08;95693.34;;;14.73;100.00
71956;BME280;59829;50.562;6.258;2023-08-08T09:32:09;95694.69;;;14.77;100.00
71956;BME280;59829;50.562;6.258;2023-08-08T09:42:09;95698.28;;;14.85;100.00
71956;BME280;59829;50.562;6.258;2023-08-08T09:52:11;95703.78;;;14.90;100.00
71956;BME280;59829;50.562;6.258;2023-08-08T10:02:14;95705.81;;;15.04;100.00
71956;BME280;59829;50.562;6.258;2023-08-08T10:12:15;95689.75;;;15.10;100.00
71956;BME280;59829;50.562;6.258;2023-08-08T10:22:20;95714.53;;;15.03;100.00
71956;BME280;59829;50.562;6.258;2023-08-08T10:32:24;95703.88;;;15.06;100.00
71956;BME280;59829;50.562;6.258;2023-08-08T10:42:27;95702.06;;;15.24;100.00
71956;BME280;59829;50.562;6.258;2023-08-08T10:52:27;95704.59;;;15.16;99.63
71956;BME280;59829;50.562;6.258;2023-08-08T11:02:28;95708.47;;;15.12;99.32
71956;BME280;59829;50.562;6.258;2023-08-08T11:12:32;95699.22;;;15.09;99.02
71956;BME280;59829;50.562;6.258;2023-08-08T11:22:32;95706.03;;;15.11;98.95
71956;BME280;59829;50.562;6.258;2023-08-08T11:32:33;95701.25;;;15.24;99.35
71956;BME280;59829;50.562;6.258;2023-08-08T11:42:34;95685.47;;;15.27;99.73
71956;BME280;59829;50.562;6.258;2023-08-08T11:52:42;95682.38;;;15.23;99.71
71956;BME280;59829;50.562;6.258;2023-08-08T12:02:43;95676.25;;;15.24;100.00
71956;BME280;59829;50.562;6.258;2023-08-08T12:12:44;95673.22;;;15.29;99.82
71956;BME280;59829;50.562;6.258;2023-08-08T12:22:45;95676.63;;;15.29;99.97
71956;BME280;59829;50.562;6.258;2023-08-08T12:32:45;95684.06;;;15.32;99.98
71956;BME280;59829;50.562;6.258;2023-08-08T12:42:45;95683.13;;;15.42;100.00
71956;BME280;59829;50.562;6.258;2023-08-08T12:52:46;95688.59;;;15.38;100.00
71956;BME280;59829;50.562;6.258;2023-08-08T13:02:46;95689.22;;;15.32;99.95
71956;BME280;59829;50.562;6.258;2023-08-08T13:12:48;95688.19;;;15.25;99.36
71956;BME280;59829;50.562;6.258;2023-08-08T13:22:48;95691.88;;;15.15;99.28
71956;BME280;59829;50.562;6.258;2023-08-08T13:32:48;95668.81;;;15.13;99.70
71956;BME280;59829;50.562;6.258;2023-08-08T13:42:49;95670.19;;;15.33;100.00
71956;BME280;59829;50.562;6.258;2023-08-08T13:52:50;95663.00;;;15.53;100.00
71956;BME280;59829;50.562;6.258;2023-08-08T14:02:52;95653.00;;;15.58;100.00
71956;BME280;59829;50.562;6.258;2023-08-08T14:12:52;95667.69;;;15.58;100.00
71956;BME280;59829;50.562;6.258;2023-08-08T14:22:53;95676.13;;;15.60;99.66
71956;BME280;59829;50.562;6.258;2023-08-08T14:32:53;95688.97;;;15.52;98.76
71956;BME280;59829;50.562;6.258;2023-08-08T14:42:54;95708.91;;;15.42;97.83
71956;BME280;59829;50.562;6.258;2023-08-08T14:52:54;95719.16;;;15.25;97.29
71956;BME280;59829;50.562;6.258;2023-08-08T15:02:55;95703.34;;;15.20;98.13
71956;BME280;59829;50.562;6.258;2023-08-08T15:12:55;95714.81;;;15.26;98.58
71956;BME280;59829;50.562;6.258;2023-08-08T15:22:56;95720.19;;;15.32;99.24
71956;BME280;59829;50.562;6.258;2023-08-08T15:32:56;95705.03;;;15.37;99.40
71956;BME280;59829;50.562;6.258;2023-08-08T15:42:56;95688.88;;;15.61;100.00
71956;BME280;59829;50.562;6.258;2023-08-08T15:52:56;95678.09;;;15.74;100.00
71956;BME280;59829;50.562;6.258;2023-08-08T16:02:58;95672.66;;;15.93;100.00
71956;BME280;59829;50.562;6.258;2023-08-08T16:12:59;95681.38;;;15.92;98.68
71956;BME280;59829;50.562;6.258;2023-08-08T16:22:59;95686.50;;;15.76;97.82
71956;BME280;59829;50.562;6.258;2023-08-08T16:33:00;95687.63;;;15.74;97.22
71956;BME280;59829;50.562;6.258;2023-08-08T16:43:00;95697.94;;;15.74;97.24
71956;BME280;59829;50.562;6.258;2023-08-08T16:53:01;95699.41;;;15.68;97.17
71956;BME280;59829;50.562;6.258;2023-08-08T17:03:01;95696.97;;;15.66;96.90
71956;BME280;59829;50.562;6.258;2023-08-08T17:13:02;95687.28;;;15.68;96.98
71956;BME280;59829;50.562;6.258;2023-08-08T17:23:03;95676.47;;;15.73;97.32
71956;BME280;59829;50.562;6.258;2023-08-08T17:33:03;95665.50;;;15.79;98.07
71956;BME280;59829;50.562;6.258;2023-08-08T17:43:04;95657.94;;;15.78;98.06
71956;BME280;59829;50.562;6.258;2023-08-08T17:53:04;95650.66;;;15.73;98.50
71956;BME280;59829;50.562;6.258;2023-08-08T18:03:04;95661.00;;;15.73;98.90
71956;BME280;59829;50.562;6.258;2023-08-08T18:13:05;95644.19;;;15.69;99.37
71956;BME280;59829;50.562;6.258;2023-08-08T18:23:05;95649.84;;;15.64;99.82
71956;BME280;59829;50.562;6.258;2023-08-08T18:33:06;95645.25;;;15.58;100.00
71956;BME280;59829;50.562;6.258;2023-08-08T18:43:06;95652.50;;;15.55;100.00
71956;BME280;59829;50.562;6.258;2023-08-08T18:53:07;95643.47;;;15.51;100.00
71956;BME280;59829;50.562;6.258;2023-08-08T19:03:07;95646.38;;;15.48;100.00
71956;BME280;59829;50.562;6.258;2023-08-08T19:13:07;95646.97;;;15.42;100.00
71956;BME280;59829;50.562;6.258;2023-08-08T19:23:08;95642.44;;;15.35;100.00
71956;BME280;59829;50.562;6.258;2023-08-08T19:33:08;95629.53;;;15.27;100.00
71956;BME280;59829;50.562;6.258;2023-08-08T19:43:08;95616.75;;;15.26;100.00
71956;BME280;59829;50.562;6.258;2023-08-08T19:53:09;95619.47;;;15.24;100.00
71956;BME280;59829;50.562;6.258;2023-08-08T20:03:09;95622.22;;;15.23;100.00
71956;BME280;59829;50.562;6.258;2023-08-08T20:13:09;95592.38;;;15.20;100.00
71956;BME280;59829;50.562;6.258;2023-08-08T20:23:10;95588.34;;;15.18;100.00
71956;BME280;59829;50.562;6.258;2023-08-08T20:33:11;95569.47;;;15.17;100.00
71956;BME280;59829;50.562;6.258;2023-08-08T20:43:11;95576.41;;;15.17;100.00
71956;BME280;59829;50.562;6.258;2023-08-08T20:53:11;95575.59;;;15.16;100.00
71956;BME280;59829;50.562;6.258;2023-08-08T21:03:12;95575.91;;;15.13;100.00
71956;BME280;59829;50.562;6.258;2023-08-08T21:13:13;95577.53;;;15.14;100.00
71956;BME280;59829;50.562;6.258;2023-08-08T21:23:13;95581.09;;;15.13;100.00
71956;BME280;59829;50.562;6.258;2023-08-08T21:33:13;95596.03;;;15.09;100.00
71956;BME280;59829;50.562;6.258;2023-08-08T21:43:14;95562.97;;;15.05;100.00
71956;BME280;59829;50.562;6.258;2023-08-08T21:53:14;95577.31;;;15.07;100.00
71956;BME280;59829;50.562;6.258;2023-08-08T22:03:14;95555.88;;;15.07;100.00
71956;BME280;59829;50.562;6.258;2023-08-08T22:13:15;95557.22;;;15.11;100.00
71956;BME280;59829;50.562;6.258;2023-08-08T22:23:15;95534.97;;;15.10;100.00
71956;BME280;59829;50.562;6.258;2023-08-08T22:33:15;95513.19;;;15.13;100.00
71956;BME280;59829;50.562;6.258;2023-08-08T22:43:16;95495.94;;;15.13;100.00
71956;BME280;59829;50.562;6.258;2023-08-08T22:53:16;95484.97;;;15.11;100.00
71956;BME280;59829;50.562;6.258;2023-08-08T23:03:17;95473.84;;;15.11;100.00
71956;BME280;59829;50.562;6.258;2023-08-08T23:13:17;95481.72;;;15.09;100.00
71956;BME280;59829;50.562;6.258;2023-08-08T23:23:17;95480.09;;;15.08;100.00
71956;BME280;59829;50.562;6.258;2023-08-08T23:33:17;95499.94;;;15.07;100.00
71956;BME280;59829;50.562;6.258;2023-08-08T23:43:18;95493.97;;;15.07;100.00
71956;BME280;59829;50.562;6.258;2023-08-08T23:53:18;95483.66;;;15.07;100.00
